sensor_id;sensor_type;location;lat;lon;timestamp;P1;durP1;ratioP1;P2;durP2;ratioP2
60612;SDS011;46443;59.792;17.626;2023-02-12T00:00:06;3.03;;;2.00;;
60612;SDS011;46443;59.792;17.626;2023-02-12T00:02:33;3.58;;;2.20;;
60612;SDS011;46443;59.792;17.626;2023-02-12T00:04:59;4.25;;;2.22;;
60612;SDS011;46443;59.792;17.626;2023-02-12T00:07:25;2.90;;;1.92;;
60612;SDS011;46443;59.792;17.626;2023-02-12T00:09:51;3.88;;;2.10;;
60612;SDS011;46443;59.792;17.626;2023-02-12T00:12:17;3.72;;;2.00;;
60612;SDS011;46443;59.792;17.626;2023-02-12T00:14:43;2.58;;;1.90;;
60612;SDS011;46443;59.792;17.626;2023-02-12T00:17:09;4.15;;;2.10;;
60612;SDS011;46443;59.792;17.626;2023-02-12T00:19:35;2.65;;;1.83;;
60612;SDS011;46443;59.792;17.626;2023-02-12T00:22:01;7.15;;;2.10;;
60612;SDS011;46443;59.792;17.626;2023-02-12T00:24:27;4.57;;;1.90;;
60612;SDS011;46443;59.792;17.626;2023-02-12T00:26:53;5.13;;;2.13;;
60612;SDS011;46443;59.792;17.626;2023-02-12T00:29:19;5.28;;;2.33;;
60612;SDS011;46443;59.792;17.626;2023-02-12T00:31:45;3.85;;;1.92;;
60612;SDS011;46443;59.792;17.626;2023-02-12T00:34:12;4.85;;;2.45;;
60612;SDS011;46443;59.792;17.626;2023-02-12T00:36:38;2.38;;;1.75;;
60612;SDS011;46443;59.792;17.626;2023-02-12T00:39:04;3.30;;;2.05;;
60612;SDS011;46443;59.792;17.626;2023-02-12T00:41:30;4.30;;;2.20;;
60612;SDS011;46443;59.792;17.626;2023-02-12T00:43:56;3.03;;;1.80;;
60612;SDS011;46443;59.792;17.626;2023-02-12T00:46:22;4.05;;;2.08;;
60612;SDS011;46443;59.792;17.626;2023-02-12T00:48:48;6.15;;;2.33;;
60612;SDS011;46443;59.792;17.626;2023-02-12T00:51:15;5.15;;;1.88;;
60612;SDS011;46443;59.792;17.626;2023-02-12T00:53:41;4.32;;;2.13;;
60612;SDS011;46443;59.792;17.626;2023-02-12T00:56:07;3.00;;;1.88;;
60612;SDS011;46443;59.792;17.626;2023-02-12T00:58:33;3.42;;;2.15;;
60612;SDS011;46443;59.792;17.626;2023-02-12T01:00:59;4.07;;;2.55;;
60612;SDS011;46443;59.792;17.626;2023-02-12T01:03:25;5.18;;;2.22;;
60612;SDS011;46443;59.792;17.626;2023-02-12T01:05:51;5.43;;;2.60;;
60612;SDS011;46443;59.792;17.626;2023-02-12T01:08:18;4.05;;;2.20;;
60612;SDS011;46443;59.792;17.626;2023-02-12T01:10:44;4.15;;;2.10;;
60612;SDS011;46443;59.792;17.626;2023-02-12T01:13:13;4.93;;;2.28;;
60612;SDS011;46443;59.792;17.626;2023-02-12T01:15:40;3.17;;;2.15;;
60612;SDS011;46443;59.792;17.626;2023-02-12T01:18:06;5.00;;;2.00;;
60612;SDS011;46443;59.792;17.626;2023-02-12T01:20:32;3.85;;;2.03;;
60612;SDS011;46443;59.792;17.626;2023-02-12T01:22:58;4.15;;;1.98;;
60612;SDS011;46443;59.792;17.626;2023-02-12T01:25:25;3.58;;;2.40;;
60612;SDS011;46443;59.792;17.626;2023-02-12T01:27:52;8.50;;;2.50;;
60612;SDS011;46443;59.792;17.626;2023-02-12T01:30:18;4.32;;;2.00;;
60612;SDS011;46443;59.792;17.626;2023-02-12T01:32:47;3.30;;;2.10;;
60612;SDS011;46443;59.792;17.626;2023-02-12T01:35:13;4.53;;;2.00;;
60612;SDS011;46443;59.792;17.626;2023-02-12T01:37:39;3.05;;;1.73;;
60612;SDS011;46443;59.792;17.626;2023-02-12T01:40:06;2.90;;;1.73;;
60612;SDS011;46443;59.792;17.626;2023-02-12T01:42:32;5.43;;;2.03;;
60612;SDS011;46443;59.792;17.626;2023-02-12T01:47:40;4.93;;;2.10;;
60612;SDS011;46443;59.792;17.626;2023-02-12T01:50:07;2.85;;;2.08;;
60612;SDS011;46443;59.792;17.626;2023-02-12T01:52:34;5.35;;;1.90;;
60612;SDS011;46443;59.792;17.626;2023-02-12T01:55:03;3.80;;;1.90;;
60612;SDS011;46443;59.792;17.626;2023-02-12T01:57:31;4.22;;;1.92;;
60612;SDS011;46443;59.792;17.626;2023-02-12T01:59:57;4.65;;;2.20;;
60612;SDS011;46443;59.792;17.626;2023-02-12T02:02:25;3.72;;;2.30;;
60612;SDS011;46443;59.792;17.626;2023-02-12T02:05:00;2.85;;;1.90;;
60612;SDS011;46443;59.792;17.626;2023-02-12T02:07:27;3.63;;;2.33;;
60612;SDS011;46443;59.792;17.626;2023-02-12T02:09:54;2.47;;;1.90;;
60612;SDS011;46443;59.792;17.626;2023-02-12T02:12:20;4.10;;;2.17;;
60612;SDS011;46443;59.792;17.626;2023-02-12T02:15:05;5.28;;;1.80;;
60612;SDS011;46443;59.792;17.626;2023-02-12T02:22:36;3.05;;;1.98;;
60612;SDS011;46443;59.792;17.626;2023-02-12T02:25:19;3.47;;;1.92;;
60612;SDS011;46443;59.792;17.626;2023-02-12T02:28:05;2.88;;;2.00;;
60612;SDS011;46443;59.792;17.626;2023-02-12T02:35:52;4.60;;;1.80;;
60612;SDS011;46443;59.792;17.626;2023-02-12T02:38:33;6.50;;;1.90;;
60612;SDS011;46443;59.792;17.626;2023-02-12T02:41:10;3.55;;;1.90;;
60612;SDS011;46443;59.792;17.626;2023-02-12T02:43:42;1.50;;;1.40;;
60612;SDS011;46443;59.792;17.626;2023-02-12T02:46:10;4.70;;;1.92;;
60612;SDS011;46443;59.792;17.626;2023-02-12T02:48:39;2.90;;;1.70;;
60612;SDS011;46443;59.792;17.626;2023-02-12T02:51:08;6.95;;;2.30;;
60612;SDS011;46443;59.792;17.626;2023-02-12T02:53:41;3.75;;;2.30;;
60612;SDS011;46443;59.792;17.626;2023-02-12T02:56:10;3.40;;;1.92;;
60612;SDS011;46443;59.792;17.626;2023-02-12T02:58:38;4.85;;;1.70;;
60612;SDS011;46443;59.792;17.626;2023-02-12T03:03:33;3.75;;;1.70;;
60612;SDS011;46443;59.792;17.626;2023-02-12T03:08:35;2.92;;;1.80;;
60612;SDS011;46443;59.792;17.626;2023-02-12T03:11:16;3.05;;;1.73;;
60612;SDS011;46443;59.792;17.626;2023-02-12T03:13:48;5.57;;;2.03;;
60612;SDS011;46443;59.792;17.626;2023-02-12T03:16:17;4.47;;;2.00;;
60612;SDS011;46443;59.792;17.626;2023-02-12T03:18:47;5.47;;;2.00;;
60612;SDS011;46443;59.792;17.626;2023-02-12T03:21:17;5.22;;;2.00;;
60612;SDS011;46443;59.792;17.626;2023-02-12T03:26:14;3.95;;;1.73;;
60612;SDS011;46443;59.792;17.626;2023-02-12T03:28:42;5.03;;;2.00;;
60612;SDS011;46443;59.792;17.626;2023-02-12T03:31:10;3.92;;;2.28;;
60612;SDS011;46443;59.792;17.626;2023-02-12T03:38:49;4.10;;;1.80;;
60612;SDS011;46443;59.792;17.626;2023-02-12T03:43:47;2.33;;;1.65;;
60612;SDS011;46443;59.792;17.626;2023-02-12T03:48:51;3.83;;;1.70;;
60612;SDS011;46443;59.792;17.626;2023-02-12T03:53:52;5.53;;;2.03;;
60612;SDS011;46443;59.792;17.626;2023-02-12T03:56:23;5.03;;;1.75;;
60612;SDS011;46443;59.792;17.626;2023-02-12T03:58:50;2.55;;;1.80;;
60612;SDS011;46443;59.792;17.626;2023-02-12T04:01:16;3.17;;;1.98;;
60612;SDS011;46443;59.792;17.626;2023-02-12T04:03:42;5.22;;;2.05;;
60612;SDS011;46443;59.792;17.626;2023-02-12T04:06:27;3.22;;;1.90;;
60612;SDS011;46443;59.792;17.626;2023-02-12T04:08:54;3.20;;;1.80;;
60612;SDS011;46443;59.792;17.626;2023-02-12T04:14:10;4.50;;;2.03;;
60612;SDS011;46443;59.792;17.626;2023-02-12T04:19:12;3.78;;;1.73;;
60612;SDS011;46443;59.792;17.626;2023-02-12T04:26:51;6.15;;;2.25;;
60612;SDS011;46443;59.792;17.626;2023-02-12T04:31:49;4.05;;;2.00;;
60612;SDS011;46443;59.792;17.626;2023-02-12T04:36:49;6.93;;;2.42;;
60612;SDS011;46443;59.792;17.626;2023-02-12T04:39:17;2.95;;;2.15;;
60612;SDS011;46443;59.792;17.626;2023-02-12T04:41:44;5.43;;;2.30;;
60612;SDS011;46443;59.792;17.626;2023-02-12T04:44:23;3.63;;;2.63;;
60612;SDS011;46443;59.792;17.626;2023-02-12T04:46:49;3.22;;;2.00;;
60612;SDS011;46443;59.792;17.626;2023-02-12T04:49:16;3.60;;;2.25;;
60612;SDS011;46443;59.792;17.626;2023-02-12T04:51:43;5.53;;;2.65;;
60612;SDS011;46443;59.792;17.626;2023-02-12T04:54:09;3.67;;;2.05;;
60612;SDS011;46443;59.792;17.626;2023-02-12T04:56:35;5.13;;;2.35;;
60612;SDS011;46443;59.792;17.626;2023-02-12T04:59:01;4.15;;;2.10;;
60612;SDS011;46443;59.792;17.626;2023-02-12T05:01:27;8.75;;;2.45;;
60612;SDS011;46443;59.792;17.626;2023-02-12T05:03:53;7.45;;;2.72;;
60612;SDS011;46443;59.792;17.626;2023-02-12T05:06:20;5.20;;;2.10;;
60612;SDS011;46443;59.792;17.626;2023-02-12T05:08:46;6.72;;;2.50;;
60612;SDS011;46443;59.792;17.626;2023-02-12T05:11:12;6.00;;;2.40;;
60612;SDS011;46443;59.792;17.626;2023-02-12T05:13:38;6.65;;;2.38;;
60612;SDS011;46443;59.792;17.626;2023-02-12T05:16:06;4.75;;;2.10;;
60612;SDS011;46443;59.792;17.626;2023-02-12T05:18:33;4.55;;;2.22;;
60612;SDS011;46443;59.792;17.626;2023-02-12T05:21:00;3.67;;;2.20;;
60612;SDS011;46443;59.792;17.626;2023-02-12T05:23:30;5.20;;;2.33;;
60612;SDS011;46443;59.792;17.626;2023-02-12T05:28:22;7.60;;;2.13;;
60612;SDS011;46443;59.792;17.626;2023-02-12T05:30:48;2.92;;;2.20;;
60612;SDS011;46443;59.792;17.626;2023-02-12T05:33:14;5.90;;;2.25;;
60612;SDS011;46443;59.792;17.626;2023-02-12T05:35:40;3.50;;;2.30;;
60612;SDS011;46443;59.792;17.626;2023-02-12T05:38:06;4.13;;;1.98;;
60612;SDS011;46443;59.792;17.626;2023-02-12T05:40:33;4.40;;;2.20;;
60612;SDS011;46443;59.792;17.626;2023-02-12T05:42:59;5.13;;;1.90;;
60612;SDS011;46443;59.792;17.626;2023-02-12T05:45:26;6.00;;;2.17;;
60612;SDS011;46443;59.792;17.626;2023-02-12T05:47:53;3.30;;;1.77;;
60612;SDS011;46443;59.792;17.626;2023-02-12T05:50:19;4.40;;;2.08;;
60612;SDS011;46443;59.792;17.626;2023-02-12T05:52:46;3.85;;;2.45;;
60612;SDS011;46443;59.792;17.626;2023-02-12T05:55:12;5.65;;;2.10;;
60612;SDS011;46443;59.792;17.626;2023-02-12T05:57:38;3.58;;;2.00;;
60612;SDS011;46443;59.792;17.626;2023-02-12T06:00:05;6.25;;;2.25;;
60612;SDS011;46443;59.792;17.626;2023-02-12T06:02:34;4.97;;;2.17;;
60612;SDS011;46443;59.792;17.626;2023-02-12T06:05:00;6.63;;;2.05;;
60612;SDS011;46443;59.792;17.626;2023-02-12T06:07:26;6.45;;;2.40;;
60612;SDS011;46443;59.792;17.626;2023-02-12T06:09:52;5.15;;;2.45;;
60612;SDS011;46443;59.792;17.626;2023-02-12T06:12:21;8.45;;;2.47;;
60612;SDS011;46443;59.792;17.626;2023-02-12T06:14:47;4.10;;;1.92;;
60612;SDS011;46443;59.792;17.626;2023-02-12T06:17:13;7.05;;;2.28;;
60612;SDS011;46443;59.792;17.626;2023-02-12T06:19:39;4.60;;;2.20;;
60612;SDS011;46443;59.792;17.626;2023-02-12T06:22:05;3.17;;;1.98;;
60612;SDS011;46443;59.792;17.626;2023-02-12T06:24:31;6.40;;;2.60;;
60612;SDS011;46443;59.792;17.626;2023-02-12T06:26:57;4.63;;;2.20;;
60612;SDS011;46443;59.792;17.626;2023-02-12T06:29:23;3.05;;;2.10;;
60612;SDS011;46443;59.792;17.626;2023-02-12T06:31:50;6.18;;;2.42;;
60612;SDS011;46443;59.792;17.626;2023-02-12T06:34:16;5.70;;;2.50;;
60612;SDS011;46443;59.792;17.626;2023-02-12T06:36:42;6.22;;;2.33;;
60612;SDS011;46443;59.792;17.626;2023-02-12T06:39:09;5.47;;;2.60;;
60612;SDS011;46443;59.792;17.626;2023-02-12T06:41:35;6.72;;;2.47;;
60612;SDS011;46443;59.792;17.626;2023-02-12T06:44:02;5.03;;;2.38;;
60612;SDS011;46443;59.792;17.626;2023-02-12T06:46:28;6.45;;;2.53;;
60612;SDS011;46443;59.792;17.626;2023-02-12T06:48:55;5.30;;;2.50;;
60612;SDS011;46443;59.792;17.626;2023-02-12T06:51:21;4.75;;;2.17;;
60612;SDS011;46443;59.792;17.626;2023-02-12T06:53:48;8.05;;;2.47;;
60612;SDS011;46443;59.792;17.626;2023-02-12T06:56:15;5.88;;;2.72;;
60612;SDS011;46443;59.792;17.626;2023-02-12T06:58:42;4.22;;;2.42;;
60612;SDS011;46443;59.792;17.626;2023-02-12T07:03:37;6.85;;;2.65;;
60612;SDS011;46443;59.792;17.626;2023-02-12T07:06:03;5.43;;;2.40;;
60612;SDS011;46443;59.792;17.626;2023-02-12T07:08:29;5.40;;;2.63;;
60612;SDS011;46443;59.792;17.626;2023-02-12T07:10:56;5.00;;;2.47;;
60612;SDS011;46443;59.792;17.626;2023-02-12T07:13:22;5.38;;;2.63;;
60612;SDS011;46443;59.792;17.626;2023-02-12T07:15:48;4.32;;;2.60;;
60612;SDS011;46443;59.792;17.626;2023-02-12T07:18:14;4.22;;;2.30;;
60612;SDS011;46443;59.792;17.626;2023-02-12T07:20:40;6.32;;;2.53;;
60612;SDS011;46443;59.792;17.626;2023-02-12T07:23:06;3.97;;;2.45;;
60612;SDS011;46443;59.792;17.626;2023-02-12T07:25:35;4.43;;;2.60;;
60612;SDS011;46443;59.792;17.626;2023-02-12T07:28:01;6.60;;;2.40;;
60612;SDS011;46443;59.792;17.626;2023-02-12T07:30:27;6.95;;;2.50;;
60612;SDS011;46443;59.792;17.626;2023-02-12T07:32:53;6.10;;;2.80;;
60612;SDS011;46443;59.792;17.626;2023-02-12T07:35:19;3.80;;;2.28;;
60612;SDS011;46443;59.792;17.626;2023-02-12T07:37:45;7.97;;;2.40;;
60612;SDS011;46443;59.792;17.626;2023-02-12T07:40:11;7.00;;;2.90;;
60612;SDS011;46443;59.792;17.626;2023-02-12T07:42:38;6.47;;;2.92;;
60612;SDS011;46443;59.792;17.626;2023-02-12T07:45:04;6.80;;;2.63;;
60612;SDS011;46443;59.792;17.626;2023-02-12T07:47:30;6.80;;;2.60;;
60612;SDS011;46443;59.792;17.626;2023-02-12T07:49:56;6.53;;;2.63;;
60612;SDS011;46443;59.792;17.626;2023-02-12T07:52:22;5.15;;;2.70;;
60612;SDS011;46443;59.792;17.626;2023-02-12T07:54:48;6.28;;;2.83;;
60612;SDS011;46443;59.792;17.626;2023-02-12T07:57:14;5.35;;;2.88;;
60612;SDS011;46443;59.792;17.626;2023-02-12T07:59:40;7.80;;;3.22;;
60612;SDS011;46443;59.792;17.626;2023-02-12T08:02:08;4.45;;;2.22;;
60612;SDS011;46443;59.792;17.626;2023-02-12T08:04:34;4.18;;;2.17;;
60612;SDS011;46443;59.792;17.626;2023-02-12T08:07:00;6.22;;;2.70;;
60612;SDS011;46443;59.792;17.626;2023-02-12T08:09:27;5.25;;;2.90;;
60612;SDS011;46443;59.792;17.626;2023-02-12T08:11:54;5.68;;;2.50;;
60612;SDS011;46443;59.792;17.626;2023-02-12T08:14:21;7.55;;;3.10;;
60612;SDS011;46443;59.792;17.626;2023-02-12T08:16:47;7.38;;;2.63;;
60612;SDS011;46443;59.792;17.626;2023-02-12T08:19:14;4.93;;;2.35;;
60612;SDS011;46443;59.792;17.626;2023-02-12T08:21:40;4.20;;;2.85;;
60612;SDS011;46443;59.792;17.626;2023-02-12T08:24:06;5.07;;;2.60;;
60612;SDS011;46443;59.792;17.626;2023-02-12T08:26:35;7.28;;;2.60;;
60612;SDS011;46443;59.792;17.626;2023-02-12T08:31:34;7.38;;;3.22;;
60612;SDS011;46443;59.792;17.626;2023-02-12T08:34:01;6.93;;;2.90;;
60612;SDS011;46443;59.792;17.626;2023-02-12T08:36:28;7.90;;;3.17;;
60612;SDS011;46443;59.792;17.626;2023-02-12T08:38:56;5.25;;;2.75;;
60612;SDS011;46443;59.792;17.626;2023-02-12T08:41:23;5.55;;;2.55;;
60612;SDS011;46443;59.792;17.626;2023-02-12T08:43:53;5.72;;;2.72;;
60612;SDS011;46443;59.792;17.626;2023-02-12T08:46:21;5.00;;;2.83;;
60612;SDS011;46443;59.792;17.626;2023-02-12T08:48:50;5.85;;;2.72;;
60612;SDS011;46443;59.792;17.626;2023-02-12T08:51:17;8.90;;;3.75;;
60612;SDS011;46443;59.792;17.626;2023-02-12T08:53:44;5.88;;;2.40;;
60612;SDS011;46443;59.792;17.626;2023-02-12T08:56:11;6.38;;;2.83;;
60612;SDS011;46443;59.792;17.626;2023-02-12T08:58:38;6.10;;;2.80;;
60612;SDS011;46443;59.792;17.626;2023-02-12T09:01:07;5.32;;;2.67;;
60612;SDS011;46443;59.792;17.626;2023-02-12T09:03:34;5.38;;;2.63;;
60612;SDS011;46443;59.792;17.626;2023-02-12T09:06:03;4.95;;;2.60;;
60612;SDS011;46443;59.792;17.626;2023-02-12T09:08:29;6.93;;;2.80;;
60612;SDS011;46443;59.792;17.626;2023-02-12T09:10:55;6.45;;;2.85;;
60612;SDS011;46443;59.792;17.626;2023-02-12T09:13:21;7.05;;;3.05;;
60612;SDS011;46443;59.792;17.626;2023-02-12T09:15:48;7.00;;;2.40;;
60612;SDS011;46443;59.792;17.626;2023-02-12T09:18:14;6.07;;;2.90;;
60612;SDS011;46443;59.792;17.626;2023-02-12T09:20:42;6.85;;;3.33;;
60612;SDS011;46443;59.792;17.626;2023-02-12T09:23:09;6.30;;;2.58;;
60612;SDS011;46443;59.792;17.626;2023-02-12T09:25:38;4.43;;;2.60;;
60612;SDS011;46443;59.792;17.626;2023-02-12T09:28:04;5.72;;;2.60;;
60612;SDS011;46443;59.792;17.626;2023-02-12T09:30:30;6.05;;;2.80;;
60612;SDS011;46443;59.792;17.626;2023-02-12T09:32:56;6.70;;;2.78;;
60612;SDS011;46443;59.792;17.626;2023-02-12T09:35:22;9.30;;;3.60;;
60612;SDS011;46443;59.792;17.626;2023-02-12T09:37:49;10.65;;;2.88;;
60612;SDS011;46443;59.792;17.626;2023-02-12T09:43:05;7.95;;;3.15;;
60612;SDS011;46443;59.792;17.626;2023-02-12T09:45:33;6.57;;;2.60;;
60612;SDS011;46443;59.792;17.626;2023-02-12T09:48:08;6.78;;;3.05;;
60612;SDS011;46443;59.792;17.626;2023-02-12T09:50:45;7.32;;;3.17;;
60612;SDS011;46443;59.792;17.626;2023-02-12T09:53:16;6.25;;;3.35;;
60612;SDS011;46443;59.792;17.626;2023-02-12T09:55:44;5.75;;;3.08;;
60612;SDS011;46443;59.792;17.626;2023-02-12T09:58:13;7.95;;;3.30;;
60612;SDS011;46443;59.792;17.626;2023-02-12T10:00:40;6.07;;;3.15;;
60612;SDS011;46443;59.792;17.626;2023-02-12T10:03:10;7.70;;;3.25;;
60612;SDS011;46443;59.792;17.626;2023-02-12T10:05:40;8.55;;;3.45;;
60612;SDS011;46443;59.792;17.626;2023-02-12T10:10:50;8.27;;;3.28;;
60612;SDS011;46443;59.792;17.626;2023-02-12T10:28:39;7.15;;;3.00;;
60612;SDS011;46443;59.792;17.626;2023-02-12T10:31:08;6.07;;;3.08;;
60612;SDS011;46443;59.792;17.626;2023-02-12T10:33:40;9.23;;;3.38;;
60612;SDS011;46443;59.792;17.626;2023-02-12T10:38:39;12.95;;;3.88;;
60612;SDS011;46443;59.792;17.626;2023-02-12T10:41:08;6.85;;;2.90;;
60612;SDS011;46443;59.792;17.626;2023-02-12T10:43:36;9.00;;;3.00;;
60612;SDS011;46443;59.792;17.626;2023-02-12T10:46:02;6.85;;;2.85;;
60612;SDS011;46443;59.792;17.626;2023-02-12T10:53:37;7.88;;;3.25;;
60612;SDS011;46443;59.792;17.626;2023-02-12T10:56:11;6.50;;;3.00;;
60612;SDS011;46443;59.792;17.626;2023-02-12T10:58:59;6.38;;;3.08;;
60612;SDS011;46443;59.792;17.626;2023-02-12T11:01:26;10.27;;;3.28;;
60612;SDS011;46443;59.792;17.626;2023-02-12T11:03:53;6.13;;;2.90;;
60612;SDS011;46443;59.792;17.626;2023-02-12T11:06:24;8.35;;;3.75;;
60612;SDS011;46443;59.792;17.626;2023-02-12T11:08:51;8.93;;;3.60;;
60612;SDS011;46443;59.792;17.626;2023-02-12T11:11:22;11.70;;;3.50;;
60612;SDS011;46443;59.792;17.626;2023-02-12T11:13:57;7.03;;;3.40;;
60612;SDS011;46443;59.792;17.626;2023-02-12T11:16:29;6.77;;;3.60;;
60612;SDS011;46443;59.792;17.626;2023-02-12T11:19:05;11.77;;;3.10;;
60612;SDS011;46443;59.792;17.626;2023-02-12T11:21:32;7.53;;;3.07;;
60612;SDS011;46443;59.792;17.626;2023-02-12T11:26:43;5.90;;;3.03;;
60612;SDS011;46443;59.792;17.626;2023-02-12T11:29:19;8.60;;;2.97;;
60612;SDS011;46443;59.792;17.626;2023-02-12T11:31:58;6.33;;;3.03;;
60612;SDS011;46443;59.792;17.626;2023-02-12T11:34:25;5.77;;;2.60;;
60612;SDS011;46443;59.792;17.626;2023-02-12T11:36:51;8.13;;;2.87;;
60612;SDS011;46443;59.792;17.626;2023-02-12T11:39:28;10.00;;;2.73;;
60612;SDS011;46443;59.792;17.626;2023-02-12T11:42:01;7.77;;;2.80;;
60612;SDS011;46443;59.792;17.626;2023-02-12T11:46:57;4.83;;;2.60;;
60612;SDS011;46443;59.792;17.626;2023-02-12T11:49:29;5.38;;;2.70;;
60612;SDS011;46443;59.792;17.626;2023-02-12T11:51:56;6.80;;;2.50;;
60612;SDS011;46443;59.792;17.626;2023-02-12T11:54:24;7.57;;;2.83;;
60612;SDS011;46443;59.792;17.626;2023-02-12T11:56:51;7.07;;;2.73;;
60612;SDS011;46443;59.792;17.626;2023-02-12T12:01:45;7.20;;;2.87;;
60612;SDS011;46443;59.792;17.626;2023-02-12T12:04:13;5.77;;;2.60;;
60612;SDS011;46443;59.792;17.626;2023-02-12T12:06:45;6.23;;;2.50;;
60612;SDS011;46443;59.792;17.626;2023-02-12T12:09:25;6.43;;;2.90;;
60612;SDS011;46443;59.792;17.626;2023-02-12T12:14:32;5.87;;;2.57;;
60612;SDS011;46443;59.792;17.626;2023-02-12T12:17:20;6.00;;;2.70;;
60612;SDS011;46443;59.792;17.626;2023-02-12T12:20:10;6.70;;;2.60;;
60612;SDS011;46443;59.792;17.626;2023-02-12T12:22:45;4.77;;;2.50;;
60612;SDS011;46443;59.792;17.626;2023-02-12T12:25:19;7.67;;;2.83;;
60612;SDS011;46443;59.792;17.626;2023-02-12T12:33:05;6.57;;;2.73;;
60612;SDS011;46443;59.792;17.626;2023-02-12T12:35:40;7.75;;;2.70;;
60612;SDS011;46443;59.792;17.626;2023-02-12T12:38:15;6.47;;;2.90;;
60612;SDS011;46443;59.792;17.626;2023-02-12T12:40:57;7.17;;;3.27;;
60612;SDS011;46443;59.792;17.626;2023-02-12T12:43:36;6.00;;;2.40;;
60612;SDS011;46443;59.792;17.626;2023-02-12T12:46:16;4.63;;;2.58;;
60612;SDS011;46443;59.792;17.626;2023-02-12T12:51:35;8.00;;;2.77;;
60612;SDS011;46443;59.792;17.626;2023-02-12T13:15:03;4.72;;;2.67;;
60612;SDS011;46443;59.792;17.626;2023-02-12T13:25:38;4.30;;;2.00;;
60612;SDS011;46443;59.792;17.626;2023-02-12T13:28:12;5.47;;;2.28;;
60612;SDS011;46443;59.792;17.626;2023-02-12T13:30:49;5.70;;;2.70;;
60612;SDS011;46443;59.792;17.626;2023-02-12T13:33:19;8.30;;;2.53;;
60612;SDS011;46443;59.792;17.626;2023-02-12T13:35:47;6.15;;;2.95;;
60612;SDS011;46443;59.792;17.626;2023-02-12T13:38:24;5.90;;;2.50;;
60612;SDS011;46443;59.792;17.626;2023-02-12T13:40:53;6.40;;;2.53;;
60612;SDS011;46443;59.792;17.626;2023-02-12T13:58:49;5.68;;;3.17;;
60612;SDS011;46443;59.792;17.626;2023-02-12T14:01:35;6.30;;;2.58;;
60612;SDS011;46443;59.792;17.626;2023-02-12T14:06:50;8.23;;;2.78;;
60612;SDS011;46443;59.792;17.626;2023-02-12T14:09:19;5.18;;;2.95;;
60612;SDS011;46443;59.792;17.626;2023-02-12T14:11:50;7.25;;;3.00;;
60612;SDS011;46443;59.792;17.626;2023-02-12T14:14:23;6.32;;;2.70;;
60612;SDS011;46443;59.792;17.626;2023-02-12T14:16:51;4.55;;;2.53;;
60612;SDS011;46443;59.792;17.626;2023-02-12T14:25:39;5.22;;;2.78;;
60612;SDS011;46443;59.792;17.626;2023-02-12T14:27:56;7.72;;;3.22;;
60612;SDS011;46443;59.792;17.626;2023-02-12T14:38:02;5.85;;;3.10;;
60612;SDS011;46443;59.792;17.626;2023-02-12T14:43:28;6.82;;;3.63;;
60612;SDS011;46443;59.792;17.626;2023-02-12T14:45:55;5.80;;;3.05;;
60612;SDS011;46443;59.792;17.626;2023-02-12T14:51:02;6.80;;;2.97;;
60612;SDS011;46443;59.792;17.626;2023-02-12T14:53:30;6.45;;;3.17;;
60612;SDS011;46443;59.792;17.626;2023-02-12T14:55:57;6.13;;;3.30;;
60612;SDS011;46443;59.792;17.626;2023-02-12T14:58:24;5.45;;;3.13;;
60612;SDS011;46443;59.792;17.626;2023-02-12T15:00:52;8.50;;;3.15;;
60612;SDS011;46443;59.792;17.626;2023-02-12T15:03:21;8.20;;;3.30;;
60612;SDS011;46443;59.792;17.626;2023-02-12T15:08:25;8.20;;;3.17;;
60612;SDS011;46443;59.792;17.626;2023-02-12T15:10:54;7.20;;;3.25;;
60612;SDS011;46443;59.792;17.626;2023-02-12T15:16:05;8.30;;;3.35;;
60612;SDS011;46443;59.792;17.626;2023-02-12T15:18:49;7.32;;;3.22;;
60612;SDS011;46443;59.792;17.626;2023-02-12T15:21:23;7.00;;;3.10;;
60612;SDS011;46443;59.792;17.626;2023-02-12T15:24:01;11.73;;;3.15;;
60612;SDS011;46443;59.792;17.626;2023-02-12T15:26:28;9.38;;;3.20;;
60612;SDS011;46443;59.792;17.626;2023-02-12T15:28:54;6.43;;;3.35;;
60612;SDS011;46443;59.792;17.626;2023-02-12T15:31:22;8.77;;;3.70;;
60612;SDS011;46443;59.792;17.626;2023-02-12T15:36:17;10.87;;;3.20;;
60612;SDS011;46443;59.792;17.626;2023-02-12T15:38:47;6.90;;;2.75;;
60612;SDS011;46443;59.792;17.626;2023-02-12T15:43:49;9.13;;;3.95;;
60612;SDS011;46443;59.792;17.626;2023-02-12T15:46:16;5.82;;;2.92;;
60612;SDS011;46443;59.792;17.626;2023-02-12T15:48:42;6.88;;;3.42;;
60612;SDS011;46443;59.792;17.626;2023-02-12T15:53:35;6.90;;;3.78;;
60612;SDS011;46443;59.792;17.626;2023-02-12T15:56:01;6.97;;;3.28;;
60612;SDS011;46443;59.792;17.626;2023-02-12T16:00:54;9.00;;;3.33;;
60612;SDS011;46443;59.792;17.626;2023-02-12T16:03:21;8.77;;;3.60;;
60612;SDS011;46443;59.792;17.626;2023-02-12T16:05:48;6.07;;;3.72;;
60612;SDS011;46443;59.792;17.626;2023-02-12T16:08:15;5.82;;;3.40;;
60612;SDS011;46443;59.792;17.626;2023-02-12T16:10:43;7.95;;;3.40;;
60612;SDS011;46443;59.792;17.626;2023-02-12T16:13:20;6.05;;;3.05;;
60612;SDS011;46443;59.792;17.626;2023-02-12T16:18:34;7.72;;;3.28;;
60612;SDS011;46443;59.792;17.626;2023-02-12T16:21:01;9.50;;;2.88;;
60612;SDS011;46443;59.792;17.626;2023-02-12T16:23:27;7.50;;;3.20;;
60612;SDS011;46443;59.792;17.626;2023-02-12T16:25:53;6.90;;;3.40;;
60612;SDS011;46443;59.792;17.626;2023-02-12T16:28:25;6.65;;;3.10;;
60612;SDS011;46443;59.792;17.626;2023-02-12T16:30:52;6.80;;;3.20;;
60612;SDS011;46443;59.792;17.626;2023-02-12T16:36:04;6.13;;;3.20;;
60612;SDS011;46443;59.792;17.626;2023-02-12T16:38:39;9.10;;;3.55;;
60612;SDS011;46443;59.792;17.626;2023-02-12T16:43:38;9.68;;;3.17;;
60612;SDS011;46443;59.792;17.626;2023-02-12T16:46:05;8.73;;;3.40;;
60612;SDS011;46443;59.792;17.626;2023-02-12T16:48:35;6.18;;;3.42;;
60612;SDS011;46443;59.792;17.626;2023-02-12T16:51:01;6.75;;;3.15;;
60612;SDS011;46443;59.792;17.626;2023-02-12T16:55:57;8.52;;;3.38;;
60612;SDS011;46443;59.792;17.626;2023-02-12T16:58:23;7.07;;;3.10;;
60612;SDS011;46443;59.792;17.626;2023-02-12T17:00:50;5.05;;;3.10;;
60612;SDS011;46443;59.792;17.626;2023-02-12T17:03:17;10.05;;;3.10;;
60612;SDS011;46443;59.792;17.626;2023-02-12T17:05:43;6.35;;;3.10;;
60612;SDS011;46443;59.792;17.626;2023-02-12T17:08:16;5.95;;;2.97;;
60612;SDS011;46443;59.792;17.626;2023-02-12T17:10:42;6.55;;;3.28;;
60612;SDS011;46443;59.792;17.626;2023-02-12T17:13:09;6.25;;;2.80;;
60612;SDS011;46443;59.792;17.626;2023-02-12T17:15:43;7.22;;;3.58;;
60612;SDS011;46443;59.792;17.626;2023-02-12T17:18:10;7.50;;;3.10;;
60612;SDS011;46443;59.792;17.626;2023-02-12T17:20:37;6.00;;;3.00;;
60612;SDS011;46443;59.792;17.626;2023-02-12T17:23:03;6.05;;;2.92;;
60612;SDS011;46443;59.792;17.626;2023-02-12T17:25:29;7.20;;;3.05;;
60612;SDS011;46443;59.792;17.626;2023-02-12T17:27:56;8.68;;;3.40;;
60612;SDS011;46443;59.792;17.626;2023-02-12T17:30:22;6.15;;;3.05;;
60612;SDS011;46443;59.792;17.626;2023-02-12T17:32:48;5.28;;;3.17;;
60612;SDS011;46443;59.792;17.626;2023-02-12T17:35:14;7.13;;;2.97;;
60612;SDS011;46443;59.792;17.626;2023-02-12T17:37:40;4.45;;;2.85;;
60612;SDS011;46443;59.792;17.626;2023-02-12T17:40:07;6.22;;;3.10;;
60612;SDS011;46443;59.792;17.626;2023-02-12T17:42:35;8.90;;;3.20;;
60612;SDS011;46443;59.792;17.626;2023-02-12T17:45:01;5.22;;;2.55;;
60612;SDS011;46443;59.792;17.626;2023-02-12T17:47:27;7.28;;;3.05;;
60612;SDS011;46443;59.792;17.626;2023-02-12T17:49:55;4.53;;;2.83;;
60612;SDS011;46443;59.792;17.626;2023-02-12T17:52:21;7.93;;;3.08;;
60612;SDS011;46443;59.792;17.626;2023-02-12T17:54:47;5.13;;;2.50;;